createdAt,value
2019-01-19T00:02:53.205Z,1.40
2019-01-19T00:06:22.942Z,1.30
2019-01-19T00:09:39.627Z,1.30
2019-01-19T00:13:09.172Z,1.30
2019-01-19T00:16:01.129Z,1.20
2019-01-19T00:19:31.659Z,1.20
2019-01-19T00:22:55.000Z,1.20
2019-01-19T00:26:12.291Z,1.10
2019-01-19T00:29:11.085Z,1.10
2019-01-19T00:32:03.008Z,1.00
2019-01-19T00:36:03.435Z,1.00
2019-01-19T00:39:31.372Z,1.00
2019-01-19T00:42:56.157Z,0.90
2019-01-19T00:46:29.551Z,1.00
2019-01-19T00:50:02.184Z,1.00
2019-01-19T00:53:08.609Z,1.00
2019-01-19T00:56:39.903Z,1.00
2019-01-19T00:59:30.614Z,1.10
2019-01-19T01:03:06.052Z,1.10
2019-01-19T01:06:14.490Z,1.10
2019-01-19T01:09:34.226Z,1.10
2019-01-19T01:12:55.067Z,1.10
2019-01-19T01:16:25.915Z,1.10
2019-01-19T01:19:32.005Z,1.10
2019-01-19T01:23:13.528Z,1.10
2019-01-19T01:26:32.795Z,1.00
2019-01-19T01:30:16.497Z,1.00
2019-01-19T01:33:36.810Z,1.00
2019-01-19T01:37:06.062Z,1.00
2019-01-19T01:40:25.104Z,0.90
2019-01-19T01:43:28.944Z,0.90
2019-01-19T01:47:18.460Z,0.90
2019-01-19T01:50:38.116Z,1.00
2019-01-19T01:54:16.161Z,0.90
2019-01-19T01:56:49.551Z,0.70
2019-01-19T02:00:09.109Z,0.60
2019-01-19T02:03:13.613Z,0.50
2019-01-19T02:07:18.165Z,0.50
2019-01-19T02:10:52.102Z,0.40
2019-01-19T02:14:16.274Z,0.40
2019-01-19T02:17:39.842Z,0.40
2019-01-19T02:21:18.137Z,0.30
2019-01-19T02:24:52.671Z,0.20
2019-01-19T02:28:34.720Z,0.10
2019-01-19T02:31:37.639Z,0.10
2019-01-19T02:34:53.193Z,0.10
2019-01-19T02:38:16.200Z,0.00
2019-01-19T02:42:05.325Z,0.00
2019-01-19T02:45:12.588Z,0.00
2019-01-19T02:48:52.177Z,-0.10
2019-01-19T02:51:51.868Z,-0.10
2019-01-19T02:55:20.169Z,-0.20
2019-01-19T02:58:57.050Z,-0.20
2019-01-19T03:02:20.217Z,-0.20
2019-01-19T03:05:41.529Z,-0.20
2019-01-19T03:09:20.849Z,-0.30
2019-01-19T03:12:57.955Z,-0.30
2019-01-19T03:16:29.632Z,-0.30
2019-01-19T03:19:57.151Z,-0.30
2019-01-19T03:23:11.122Z,-0.30
2019-01-19T03:26:21.673Z,-0.40
2019-01-19T03:30:02.985Z,-0.30
2019-01-19T03:33:31.643Z,-0.30
2019-01-19T03:37:06.208Z,-0.20
2019-01-19T03:40:33.524Z,-0.10
2019-01-19T03:43:59.697Z,-0.20
2019-01-19T03:47:35.830Z,-0.20
2019-01-19T03:51:07.712Z,-0.20
2019-01-19T03:54:14.091Z,-0.30
2019-01-19T03:57:24.047Z,-0.30
2019-01-19T04:00:25.464Z,-0.20
2019-01-19T04:04:06.515Z,-0.10
2019-01-19T04:07:36.119Z,-0.10
2019-01-19T04:11:05.831Z,-0.10
2019-01-19T04:14:16.165Z,-0.10
2019-01-19T04:17:46.973Z,0.00
2019-01-19T04:21:04.774Z,0.00
2019-01-19T04:23:38.136Z,-0.10
2019-01-19T04:26:25.202Z,0.00
2019-01-19T04:28:58.621Z,0.00
2019-01-19T04:31:31.835Z,-0.10
2019-01-19T04:34:05.415Z,-0.10
2019-01-19T04:36:39.033Z,-0.10
2019-01-19T04:39:12.798Z,-0.10
2019-01-19T04:41:46.457Z,-0.20
2019-01-19T04:44:19.335Z,-0.20
2019-01-19T04:46:52.427Z,-0.20
2019-01-19T04:49:25.515Z,-0.20
2019-01-19T04:51:58.579Z,-0.30
2019-01-19T04:54:31.935Z,-0.30
2019-01-19T04:57:06.773Z,-0.30
2019-01-19T04:59:39.832Z,-0.40
2019-01-19T05:02:12.906Z,-0.40
2019-01-19T05:04:46.064Z,-0.40
2019-01-19T05:07:19.197Z,-0.40
2019-01-19T05:09:52.631Z,-0.30
2019-01-19T05:12:25.839Z,-0.40
2019-01-19T05:14:58.658Z,-0.50
2019-01-19T05:17:31.551Z,-0.50
2019-01-19T05:20:05.112Z,-0.50
2019-01-19T05:22:38.497Z,-0.50
2019-01-19T05:25:12.116Z,-0.60
2019-01-19T05:27:45.404Z,-0.60
2019-01-19T05:30:21.876Z,-0.60
2019-01-19T05:32:54.921Z,-0.60
2019-01-19T05:35:28.142Z,-0.70
2019-01-19T05:38:02.086Z,-0.70
2019-01-19T05:40:35.816Z,-0.70
2019-01-19T05:43:09.352Z,-0.70
2019-01-19T05:45:42.594Z,-0.70
2019-01-19T05:48:15.858Z,-0.70
2019-01-19T05:50:49.309Z,-0.70
2019-01-19T05:53:23.113Z,-0.80
2019-01-19T05:55:55.963Z,-0.90
2019-01-19T05:58:29.483Z,-0.90
2019-01-19T06:01:02.471Z,-0.90
2019-01-19T06:03:35.551Z,-0.90
2019-01-19T06:06:09.361Z,-0.90
2019-01-19T06:08:42.395Z,-0.80
2019-01-19T06:11:15.649Z,-0.90
2019-01-19T06:13:49.094Z,-0.90
2019-01-19T06:16:22.547Z,-0.90
2019-01-19T06:18:56.587Z,-0.80
2019-01-19T06:21:33.147Z,-0.80
2019-01-19T06:24:06.487Z,-0.70
2019-01-19T06:26:39.822Z,-0.70
2019-01-19T06:29:13.239Z,-0.70
2019-01-19T06:31:46.550Z,-0.70
2019-01-19T06:34:19.959Z,-0.60
2019-01-19T06:36:55.122Z,-0.50
2019-01-19T06:39:28.541Z,-0.50
2019-01-19T06:42:01.779Z,-0.60
2019-01-19T06:44:35.222Z,-0.50
2019-01-19T06:47:08.488Z,-0.50
2019-01-19T06:49:41.441Z,-0.40
2019-01-19T06:52:14.596Z,-0.40
2019-01-19T06:54:47.660Z,-0.30
2019-01-19T06:57:20.778Z,-0.20
2019-01-19T06:59:54.645Z,-0.20
2019-01-19T07:02:38.262Z,-0.20
2019-01-19T07:05:11.865Z,-0.10
2019-01-19T07:07:44.975Z,0.00
2019-01-19T07:10:21.371Z,0.10
2019-01-19T07:12:54.600Z,0.20
2019-01-19T07:15:28.069Z,0.30
2019-01-19T07:18:01.312Z,0.40
2019-01-19T07:20:34.326Z,0.60
2019-01-19T07:23:08.577Z,0.90
2019-01-19T07:25:43.383Z,1.10
2019-01-19T07:28:16.785Z,1.20
2019-01-19T07:30:50.279Z,1.30
2019-01-19T07:33:23.748Z,1.40
2019-01-19T07:35:56.812Z,1.50
2019-01-19T07:38:29.717Z,1.70
2019-01-19T07:41:04.347Z,1.80
2019-01-19T07:43:37.703Z,1.90
2019-01-19T07:46:12.315Z,2.00
2019-01-19T07:48:45.654Z,2.10
2019-01-19T07:51:19.419Z,2.20
2019-01-19T07:53:52.877Z,2.30
2019-01-19T07:56:26.214Z,2.30
2019-01-19T07:58:59.778Z,2.40
2019-01-19T08:01:53.134Z,2.50
2019-01-19T08:04:26.167Z,2.50
2019-01-19T08:06:59.266Z,2.60
2019-01-19T08:09:35.717Z,2.70
2019-01-19T08:12:09.578Z,2.80
2019-01-19T08:14:43.104Z,3.00
2019-01-19T08:17:16.367Z,3.10
2019-01-19T08:19:49.699Z,3.30
2019-01-19T08:22:22.743Z,3.50
2019-01-19T08:24:56.021Z,3.70
2019-01-19T08:27:29.336Z,3.90
2019-01-19T08:30:02.874Z,3.90
2019-01-19T08:32:36.051Z,3.90
2019-01-19T08:35:10.278Z,3.90
2019-01-19T08:37:43.622Z,3.80
2019-01-19T08:40:27.127Z,3.80
2019-01-19T08:43:04.756Z,3.80
2019-01-19T08:45:38.332Z,3.80
2019-01-19T08:48:11.823Z,3.80
2019-01-19T08:50:44.993Z,3.80
2019-01-19T08:53:18.081Z,3.80
2019-01-19T08:55:51.217Z,3.80
2019-01-19T08:58:24.701Z,3.80
2019-01-19T09:00:57.917Z,3.90
2019-01-19T09:03:31.318Z,4.00
2019-01-19T09:06:04.907Z,4.00
2019-01-19T09:08:38.121Z,4.20
2019-01-19T09:11:11.600Z,4.30
2019-01-19T09:13:46.016Z,4.50
2019-01-19T09:16:22.546Z,4.90
2019-01-19T09:18:55.710Z,5.30
2019-01-19T09:21:29.617Z,5.50
2019-01-19T09:24:07.158Z,5.60
2019-01-19T09:26:40.198Z,5.80
2019-01-19T09:29:13.423Z,5.80
2019-01-19T09:31:46.603Z,5.90
2019-01-19T09:34:19.733Z,5.80
2019-01-19T09:36:53.171Z,5.70
2019-01-19T09:39:26.489Z,5.70
2019-01-19T09:42:09.312Z,5.60
2019-01-19T09:44:42.419Z,5.50
2019-01-19T09:47:15.065Z,5.50
2019-01-19T09:49:48.121Z,5.40
2019-01-19T09:52:21.444Z,5.30
2019-01-19T09:54:55.685Z,5.40
2019-01-19T09:57:28.993Z,5.40
2019-01-19T10:00:02.592Z,5.50
2019-01-19T10:02:35.447Z,5.70
2019-01-19T10:05:15.791Z,5.80
2019-01-19T10:07:49.138Z,6.10
2019-01-19T10:10:22.357Z,6.50
2019-01-19T10:12:55.610Z,7.10
2019-01-19T10:15:28.781Z,7.60
2019-01-19T10:18:01.717Z,8.10
2019-01-19T10:20:34.935Z,8.50
2019-01-19T10:23:07.987Z,9.00
2019-01-19T10:25:41.314Z,9.40
2019-01-19T10:28:14.512Z,9.70
2019-01-19T10:30:47.697Z,9.70
2019-01-19T10:33:21.441Z,9.50
2019-01-19T10:35:55.278Z,9.50
2019-01-19T10:38:32.077Z,9.50
2019-01-19T10:41:05.447Z,9.60
2019-01-19T10:43:38.219Z,9.50
2019-01-19T10:46:11.040Z,9.40
2019-01-19T10:48:44.045Z,9.50
2019-01-19T10:51:17.505Z,9.70
2019-01-19T10:53:50.649Z,9.70
2019-01-19T10:56:24.057Z,9.90
2019-01-19T10:58:57.774Z,10.20
2019-01-19T11:01:30.379Z,10.40
2019-01-19T11:04:03.663Z,10.40
2019-01-19T11:06:36.753Z,10.50
2019-01-19T11:09:11.053Z,10.50
2019-01-19T11:11:44.130Z,10.30
2019-01-19T11:14:17.141Z,10.20
2019-01-19T11:16:50.139Z,9.90
2019-01-19T11:19:23.501Z,9.60
2019-01-19T11:21:56.505Z,9.50
2019-01-19T11:24:30.755Z,9.30
2019-01-19T11:27:03.930Z,9.10
2019-01-19T11:29:37.320Z,9.00
2019-01-19T11:32:10.026Z,8.80
2019-01-19T11:34:43.669Z,8.60
2019-01-19T11:37:17.382Z,8.40
2019-01-19T11:39:51.378Z,8.30
2019-01-19T11:42:25.525Z,8.00
2019-01-19T11:45:02.755Z,7.80
2019-01-19T11:47:43.668Z,7.60
2019-01-19T11:50:18.800Z,7.40
2019-01-19T11:52:57.186Z,7.30
2019-01-19T11:55:34.352Z,7.10
2019-01-19T11:58:12.974Z,7.00
2019-01-19T12:00:57.265Z,6.90
2019-01-19T12:03:36.665Z,6.80
2019-01-19T12:06:16.316Z,6.60
2019-01-19T12:08:55.282Z,6.50
2019-01-19T12:11:34.183Z,6.30
2019-01-19T12:14:12.320Z,6.20
2019-01-19T12:16:51.455Z,6.10
2019-01-19T12:19:29.873Z,6.00
2019-01-19T12:22:08.843Z,5.90
2019-01-19T12:24:46.728Z,5.80
2019-01-19T12:27:23.834Z,5.50
2019-01-19T12:30:07.429Z,5.40
2019-01-19T12:32:45.360Z,5.20
2019-01-19T12:35:25.415Z,4.90
2019-01-19T12:38:02.377Z,4.80
2019-01-19T12:40:41.868Z,4.50
2019-01-19T12:43:24.342Z,4.40
2019-01-19T12:46:04.517Z,4.30
2019-01-19T12:48:42.613Z,4.30
2019-01-19T12:51:17.153Z,4.40
2019-01-19T12:53:53.809Z,4.40
2019-01-19T12:56:30.810Z,4.50
2019-01-19T12:59:10.947Z,4.60
2019-01-19T13:01:53.912Z,4.60
2019-01-19T13:04:34.651Z,4.60
2019-01-19T13:07:22.403Z,4.60
2019-01-19T13:10:25.419Z,4.50
2019-01-19T13:13:12.522Z,4.60
2019-01-19T13:16:42.121Z,4.50
2019-01-19T13:19:50.954Z,4.60
2019-01-19T13:23:26.097Z,4.50
2019-01-19T13:26:45.268Z,4.40
2019-01-19T13:30:34.063Z,4.30
2019-01-19T13:33:31.946Z,4.30
2019-01-19T13:37:19.464Z,4.30
2019-01-19T13:40:25.437Z,4.30
2019-01-19T13:43:53.967Z,4.30
2019-01-19T13:47:26.088Z,4.30
2019-01-19T13:50:26.383Z,4.20
2019-01-19T13:53:59.061Z,4.20
2019-01-19T13:57:15.274Z,4.10
2019-01-19T14:00:54.514Z,4.10
2019-01-19T14:04:14.719Z,4.00
2019-01-19T14:08:06.284Z,4.00
2019-01-19T14:11:20.068Z,4.00
2019-01-19T14:14:34.949Z,4.00
2019-01-19T14:17:45.246Z,4.00
2019-01-19T14:21:07.137Z,4.00
2019-01-19T14:24:38.545Z,4.00
2019-01-19T14:28:08.432Z,3.90
2019-01-19T14:31:22.179Z,3.90
2019-01-19T14:34:45.034Z,3.80
2019-01-19T14:38:11.413Z,3.80
2019-01-19T14:41:48.422Z,3.80
2019-01-19T14:45:03.331Z,3.80
2019-01-19T14:48:34.998Z,3.80
2019-01-19T14:51:29.582Z,3.70
2019-01-19T14:54:48.048Z,3.70
2019-01-19T14:58:26.445Z,3.70
2019-01-19T15:01:59.587Z,3.70
2019-01-19T15:05:31.975Z,3.60
2019-01-19T15:08:47.012Z,3.60
2019-01-19T15:12:39.216Z,3.50
2019-01-19T15:16:16.524Z,3.50
2019-01-19T15:19:48.346Z,3.50
2019-01-19T15:23:34.981Z,3.40
2019-01-19T15:27:22.870Z,3.30
2019-01-19T15:30:19.276Z,3.20
2019-01-19T15:34:05.494Z,3.00
2019-01-19T15:37:29.183Z,3.00
2019-01-19T15:41:12.470Z,2.90
2019-01-19T15:44:17.642Z,2.90
2019-01-19T15:47:52.200Z,2.80
2019-01-19T15:51:00.199Z,2.80
2019-01-19T15:54:20.755Z,2.80
2019-01-19T15:57:58.297Z,2.80
2019-01-19T16:01:14.425Z,2.80
2019-01-19T16:05:08.712Z,2.70
2019-01-19T16:08:28.140Z,2.70
2019-01-19T16:11:57.205Z,2.70
2019-01-19T16:15:09.134Z,2.70
2019-01-19T16:18:33.124Z,2.60
2019-01-19T16:21:53.761Z,2.60
2019-01-19T16:24:53.344Z,2.60
2019-01-19T16:28:34.000Z,2.60
2019-01-19T16:32:00.488Z,2.50
2019-01-19T16:35:15.574Z,2.50
2019-01-19T16:38:44.678Z,2.50
2019-01-19T16:42:35.242Z,2.50
2019-01-19T16:45:51.495Z,2.50
2019-01-19T16:49:48.541Z,2.50
2019-01-19T16:53:18.036Z,2.50
2019-01-19T16:56:45.955Z,2.50
2019-01-19T16:59:43.847Z,2.50
2019-01-19T17:03:12.255Z,2.50
2019-01-19T17:06:50.884Z,2.50
2019-01-19T17:10:39.359Z,2.40
2019-01-19T17:13:58.057Z,2.40
2019-01-19T17:17:08.770Z,2.50
2019-01-19T17:20:36.439Z,2.40
2019-01-19T17:23:38.166Z,2.40
2019-01-19T17:27:18.647Z,2.40
2019-01-19T17:31:05.199Z,2.40
2019-01-19T17:34:18.822Z,2.40
2019-01-19T17:37:16.678Z,2.40
2019-01-19T17:40:49.608Z,2.30
2019-01-19T17:43:57.830Z,2.30
2019-01-19T17:47:52.545Z,2.30
2019-01-19T17:50:59.041Z,2.30
2019-01-19T17:54:15.345Z,2.30
2019-01-19T17:57:51.215Z,2.30
2019-01-19T18:01:21.601Z,2.30
2019-01-19T18:04:33.798Z,2.40
2019-01-19T18:08:21.238Z,2.40
2019-01-19T18:11:50.312Z,2.40
2019-01-19T18:15:22.162Z,2.40
2019-01-19T18:18:32.579Z,2.50
2019-01-19T18:22:01.969Z,2.40
2019-01-19T18:25:11.233Z,2.40
2019-01-19T18:28:43.475Z,2.40
2019-01-19T18:32:04.117Z,2.40
2019-01-19T18:35:45.597Z,2.40
2019-01-19T18:38:59.680Z,2.40
2019-01-19T18:42:13.303Z,2.40
2019-01-19T18:45:22.657Z,2.40
2019-01-19T18:48:46.865Z,2.40
2019-01-19T18:52:02.755Z,2.40
2019-01-19T18:55:48.499Z,2.40
2019-01-19T18:59:07.671Z,2.50
2019-01-19T19:02:46.628Z,2.50
2019-01-19T19:05:58.294Z,2.50
2019-01-19T19:09:43.336Z,2.60
2019-01-19T19:12:42.195Z,2.60
2019-01-19T19:16:36.151Z,2.60
2019-01-19T19:19:59.361Z,2.60
2019-01-19T19:23:11.138Z,2.70
2019-01-19T19:26:39.976Z,2.80
2019-01-19T19:30:08.296Z,2.90
2019-01-19T19:33:48.734Z,2.80
2019-01-19T19:37:07.295Z,3.00
2019-01-19T19:40:38.405Z,3.20
2019-01-19T19:43:41.896Z,3.20
2019-01-19T19:47:03.222Z,3.20
2019-01-19T19:50:21.685Z,3.30
2019-01-19T19:52:55.242Z,3.40
2019-01-19T19:55:25.528Z,3.40
2019-01-19T19:57:58.998Z,3.50
2019-01-19T20:00:32.324Z,3.50
2019-01-19T20:03:05.451Z,3.50
2019-01-19T20:05:38.641Z,3.60
2019-01-19T20:08:11.677Z,3.50
2019-01-19T20:10:45.211Z,3.50
2019-01-19T20:13:18.368Z,3.50
2019-01-19T20:15:51.235Z,3.50
2019-01-19T20:18:35.087Z,3.40
2019-01-19T20:21:08.458Z,3.40
2019-01-19T20:23:41.808Z,3.40
2019-01-19T20:26:14.943Z,3.40
2019-01-19T20:28:48.038Z,3.40
2019-01-19T20:31:20.909Z,3.40
2019-01-19T20:33:54.516Z,3.40
2019-01-19T20:36:27.553Z,3.50
2019-01-19T20:39:22.556Z,3.40
2019-01-19T20:41:57.250Z,3.50
2019-01-19T20:44:30.589Z,3.50
2019-01-19T20:47:03.960Z,3.50
2019-01-19T20:49:37.990Z,3.50
2019-01-19T20:52:11.988Z,3.50
2019-01-19T20:54:45.943Z,3.50
2019-01-19T20:57:24.506Z,3.50
2019-01-19T20:59:58.059Z,3.50
2019-01-19T21:02:31.967Z,3.50
2019-01-19T21:05:06.202Z,3.50
2019-01-19T21:07:39.626Z,3.50
2019-01-19T21:10:13.386Z,3.50
2019-01-19T21:12:46.623Z,3.50
2019-01-19T21:15:20.417Z,3.50
2019-01-19T21:17:55.918Z,3.50
2019-01-19T21:20:28.189Z,3.50
2019-01-19T21:23:01.545Z,3.40
2019-01-19T21:25:37.424Z,3.40
2019-01-19T21:28:10.880Z,3.40
2019-01-19T21:30:44.519Z,3.40
2019-01-19T21:33:17.439Z,3.40
2019-01-19T21:35:50.865Z,3.40
2019-01-19T21:38:23.908Z,3.40
2019-01-19T21:40:57.365Z,3.40
2019-01-19T21:43:30.778Z,3.40
2019-01-19T21:46:03.677Z,3.40
2019-01-19T21:48:36.579Z,3.40
2019-01-19T21:51:10.032Z,3.40
2019-01-19T21:53:43.000Z,3.30
2019-01-19T21:56:15.782Z,3.30
2019-01-19T21:58:48.943Z,3.30
2019-01-19T22:01:22.843Z,3.30
2019-01-19T22:03:56.241Z,3.20
2019-01-19T22:06:29.199Z,3.30
2019-01-19T22:09:02.647Z,3.40
2019-01-19T22:11:35.820Z,3.30
2019-01-19T22:14:09.343Z,3.30
2019-01-19T22:16:42.354Z,3.30
2019-01-19T22:19:15.366Z,3.30
2019-01-19T22:21:48.558Z,3.30
2019-01-19T22:24:21.641Z,3.20
2019-01-19T22:26:54.802Z,3.10
2019-01-19T22:29:27.743Z,3.20
2019-01-19T22:32:01.942Z,3.20
2019-01-19T22:34:36.607Z,3.20
2019-01-19T22:37:09.530Z,3.20
2019-01-19T22:39:42.354Z,3.20
2019-01-19T22:42:15.593Z,3.20
2019-01-19T22:44:48.713Z,3.30
2019-01-19T22:47:29.231Z,3.20
2019-01-19T22:50:10.229Z,3.20
2019-01-19T22:52:52.624Z,3.20
2019-01-19T22:55:33.096Z,3.20
2019-01-19T22:58:22.374Z,3.30
2019-01-19T23:01:45.875Z,3.20
2019-01-19T23:04:29.108Z,3.20
2019-01-19T23:07:09.474Z,3.20
2019-01-19T23:09:48.012Z,3.20
2019-01-19T23:12:22.727Z,3.20
2019-01-19T23:14:56.537Z,3.20
2019-01-19T23:17:30.300Z,3.20
2019-01-19T23:20:03.355Z,3.20
2019-01-19T23:22:36.631Z,3.20
2019-01-19T23:25:10.001Z,3.20
2019-01-19T23:27:43.195Z,3.20
2019-01-19T23:30:16.774Z,3.20
2019-01-19T23:32:51.429Z,3.20
2019-01-19T23:35:25.129Z,3.20
2019-01-19T23:37:58.252Z,3.20
2019-01-19T23:40:31.222Z,3.20
2019-01-19T23:43:04.312Z,3.20
2019-01-19T23:45:37.466Z,3.20
2019-01-19T23:48:10.519Z,3.20
2019-01-19T23:50:43.741Z,3.20
2019-01-19T23:53:16.650Z,3.10
2019-01-19T23:55:49.786Z,3.10
2019-01-19T23:58:23.299Z,3.10
